Time;durP1;ratioP1;P1;durP2;ratioP2;P2;SDS_P1;SDS_P2;PMS_P1;PMS_P2;Temp;Humidity;BMP_temperature;BMP_pressure;BME280_temperature;BME280_humidity;BME280_pressure;Samples;Min_cycle;Max_cycle;Signal;HPM_P1;HPM_P2
2022/07/26 00:00:43;;;;;;;3.30;3.00;;;22.60;77.40;;;;;;5078775;28;20443;-83
2022/07/26 00:03:09;;;;;;;4.30;2.80;;;22.70;77.70;;;;;;5082360;28;20441;-82
2022/07/26 00:05:37;;;;;;;3.37;2.23;;;22.60;77.60;;;;;;5099392;28;20447;-83
2022/07/26 00:08:11;;;;;;;2.47;2.07;;;22.60;78.20;;;;;;5097470;28;20490;-82
2022/07/26 00:10:40;;;;;;;4.77;2.40;;;22.60;78.20;;;;;;5081160;28;20474;-81
2022/07/26 00:13:07;;;;;;;2.43;2.23;;;22.50;78.50;;;;;;5079019;28;20447;-83
2022/07/26 00:15:36;;;;;;;2.37;2.23;;;22.40;79.50;;;;;;5078948;28;20447;-82
2022/07/26 00:18:03;;;;;;;3.03;2.83;;;22.20;80.50;;;;;;5078534;28;20490;-83
2022/07/26 00:20:30;;;;;;;2.03;1.93;;;22.20;80.80;;;;;;5078514;28;20457;-83
2022/07/26 00:22:56;;;;;;;4.00;2.20;;;22.20;81.60;;;;;;5082027;28;20521;-83
2022/07/26 00:25:23;;;;;;;4.73;2.50;;;22.20;81.90;;;;;;5098613;28;20450;-83
2022/07/26 00:27:50;;;;;;;2.10;1.90;;;22.10;82.70;;;;;;5096771;28;20463;-81
2022/07/26 00:30:17;;;;;;;2.03;1.93;;;22.00;83.80;;;;;;5078665;28;20441;-83
2022/07/26 00:32:45;;;;;;;3.03;2.40;;;22.20;83.80;;;;;;5078734;28;20463;-83
2022/07/26 00:35:12;;;;;;;2.53;2.30;;;22.20;83.90;;;;;;5098765;28;20795;-83
2022/07/26 00:37:39;;;;;;;2.23;1.97;;;22.20;83.60;;;;;;5096842;28;20483;-83
2022/07/26 00:40:08;;;;;;;1.80;1.70;;;22.40;83.60;;;;;;5098887;28;20486;-83
2022/07/26 00:42:34;;;;;;;2.53;2.33;;;22.40;83.80;;;;;;5086294;28;20447;-81
2022/07/26 00:45:01;;;;;;;4.30;2.70;;;22.30;83.80;;;;;;5077822;28;20459;-83
2022/07/26 00:47:28;;;;;;;3.10;2.43;;;22.30;83.60;;;;;;5089009;28;20482;-83
2022/07/26 00:49:56;;;;;;;2.17;2.07;;;22.30;83.80;;;;;;5098609;28;20446;-83
2022/07/26 00:52:23;;;;;;;2.33;2.00;;;22.40;84.10;;;;;;5088397;28;20459;-83
2022/07/26 00:54:53;;;;;;;3.43;2.47;;;22.40;84.50;;;;;;5078371;28;20459;-83
2022/07/26 00:57:20;;;;;;;2.60;1.93;;;22.30;84.90;;;;;;5086336;28;20516;-83
2022/07/26 00:59:48;;;;;;;3.53;3.23;;;22.20;85.60;;;;;;5098296;28;20465;-81
2022/07/26 01:02:16;;;;;;;2.30;2.10;;;22.30;85.70;;;;;;5086337;28;21137;-83
2022/07/26 01:04:43;;;;;;;2.50;2.07;;;22.20;86.10;;;;;;5077887;28;20443;-83
2022/07/26 01:07:12;;;;;;;2.07;1.83;;;22.20;86.90;;;;;;5078250;28;20475;-83
2022/07/26 01:09:40;;;;;;;2.87;1.93;;;22.30;87.20;;;;;;5078037;28;20458;-82
2022/07/26 01:12:07;;;;;;;1.83;1.73;;;22.20;87.70;;;;;;5093598;28;20486;-83
2022/07/26 01:14:34;;;;;;;1.97;1.87;;;22.20;88.30;;;;;;5096310;28;20475;-83
2022/07/26 01:17:01;;;;;;;4.80;2.03;;;22.10;89.10;;;;;;5098070;28;20479;-83
2022/07/26 01:19:28;;;;;;;4.47;1.40;;;21.90;90.40;;;;;;5091489;28;20484;-83
2022/07/26 01:21:56;;;;;;;1.40;1.30;;;21.90;91.00;;;;;;5077301;28;20446;-83
2022/07/26 01:24:22;;;;;;;2.13;1.77;;;21.80;91.40;;;;;;5081797;28;20825;-83
2022/07/26 01:26:49;;;;;;;1.77;1.63;;;21.80;91.80;;;;;;5097578;28;20471;-83
2022/07/26 01:29:16;;;;;;;3.23;1.50;;;21.80;92.30;;;;;;5094790;28;20443;-82
2022/07/26 01:31:43;;;;;;;1.60;1.50;;;21.80;92.70;;;;;;5077015;28;20456;-83
2022/07/26 01:34:10;;;;;;;1.90;1.67;;;21.70;93.60;;;;;;5087968;28;20452;-82
2022/07/26 01:36:37;;;;;;;1.93;1.83;;;21.60;94.70;;;;;;5097357;28;20574;-83
2022/07/26 01:39:05;;;;;;;2.13;1.93;;;21.40;96.10;;;;;;5086814;28;20478;-83
2022/07/26 01:41:32;;;;;;;1.50;1.40;;;21.20;97.20;;;;;;5076970;28;20454;-82
2022/07/26 01:43:59;;;;;;;2.23;1.90;;;21.00;98.50;;;;;;5086139;28;20447;-83
2022/07/26 01:46:25;;;;;;;2.80;2.67;;;21.00;99.60;;;;;;5097375;28;20481;-83
2022/07/26 01:48:52;;;;;;;1.77;1.40;;;20.90;99.90;;;;;;5090484;28;20450;-82
2022/07/26 01:51:19;;;;;;;2.00;1.60;;;20.90;99.90;;;;;;5077171;28;20781;-83
2022/07/26 01:53:46;;;;;;;1.40;1.30;;;20.90;99.90;;;;;;5082473;28;21114;-83
2022/07/26 01:56:14;;;;;;;1.40;1.30;;;20.90;99.90;;;;;;5096827;28;20979;-83
2022/07/26 01:58:41;;;;;;;1.60;1.50;;;20.80;99.90;;;;;;5092170;28;20997;-83
2022/07/26 02:01:08;;;;;;;1.77;1.53;;;20.80;99.90;;;;;;5097474;28;20449;-83
2022/07/26 02:03:35;;;;;;;1.50;1.40;;;20.80;99.90;;;;;;5089404;28;20529;-83
2022/07/26 02:06:02;;;;;;;4.10;1.60;;;20.70;99.90;;;;;;5076509;28;20477;-83
2022/07/26 02:08:29;;;;;;;2.50;1.67;;;20.70;99.90;;;;;;5081990;28;20456;-82
2022/07/26 02:11:02;;;;;;;1.67;1.30;;;20.70;99.90;;;;;;5097460;28;20448;-83
2022/07/26 02:13:31;;;;;;;1.50;1.40;;;20.70;99.90;;;;;;5091698;28;20991;-83
2022/07/26 02:15:58;;;;;;;1.60;1.50;;;20.70;99.90;;;;;;5076429;28;20466;-83
2022/07/26 02:18:26;;;;;;;1.43;1.40;;;20.70;99.90;;;;;;5079840;28;20525;-83
2022/07/26 02:20:53;;;;;;;1.60;1.50;;;20.70;99.90;;;;;;5096617;28;20453;-81
2022/07/26 02:23:20;;;;;;;2.00;1.90;;;20.70;99.90;;;;;;5093044;28;20465;-83
2022/07/26 02:25:48;;;;;;;1.60;1.50;;;20.70;99.90;;;;;;5076165;28;20781;-83
2022/07/26 02:28:15;;;;;;;1.67;1.57;;;20.80;99.90;;;;;;5095813;28;20447;-81
2022/07/26 02:30:44;;;;;;;4.40;1.77;;;20.90;99.90;;;;;;5096781;28;20447;-83
2022/07/26 02:33:10;;;;;;;1.57;1.40;;;21.00;99.90;;;;;;5078114;28;20465;-83
2022/07/26 02:35:37;;;;;;;2.37;1.40;;;21.10;99.90;;;;;;5076093;28;20461;-81
2022/07/26 02:38:06;;;;;;;1.60;1.50;;;21.10;99.90;;;;;;5092928;28;20557;-83
2022/07/26 02:40:33;;;;;;;1.57;1.40;;;21.10;99.90;;;;;;5096396;28;20446;-83
2022/07/26 02:43:00;;;;;;;2.53;1.47;;;21.10;99.90;;;;;;5080882;28;20452;-83
2022/07/26 02:45:27;;;;;;;3.30;1.60;;;21.20;99.90;;;;;;5076301;28;20943;-83
2022/07/26 02:47:55;;;;;;;2.57;1.70;;;21.10;99.90;;;;;;5089265;28;20842;-82
2022/07/26 02:50:24;;;;;;;1.57;1.47;;;21.20;99.90;;;;;;5096657;28;20934;-83
2022/07/26 02:52:52;;;;;;;1.47;1.37;;;21.30;99.90;;;;;;5083203;28;20454;-83
2022/07/26 02:55:21;;;;;;;1.73;1.60;;;21.20;99.90;;;;;;5076478;28;20456;-83
2022/07/26 02:57:49;;;;;;;1.60;1.50;;;21.20;99.90;;;;;;5087348;28;20469;-81
2022/07/26 03:00:18;;;;;;;1.33;1.23;;;21.20;99.90;;;;;;5096824;28;20452;-83
2022/07/26 03:02:47;;;;;;;1.70;1.20;;;21.20;99.90;;;;;;5085579;28;20463;-83
2022/07/26 03:05:17;;;;;;;1.43;1.33;;;21.00;99.90;;;;;;5076438;28;20453;-82
2022/07/26 03:07:44;;;;;;;1.40;1.30;;;20.90;99.90;;;;;;5089213;28;20479;-83
2022/07/26 03:10:11;;;;;;;1.73;1.63;;;20.90;99.90;;;;;;5096540;28;20452;-82
2022/07/26 03:12:37;;;;;;;1.43;1.37;;;21.00;99.90;;;;;;5082695;28;20454;-83
2022/07/26 03:15:05;;;;;;;1.83;1.73;;;20.90;99.90;;;;;;5078642;28;20453;-83
2022/07/26 03:17:32;;;;;;;1.97;1.80;;;20.90;99.90;;;;;;5096419;28;20505;-83
2022/07/26 03:20:01;;;;;;;1.93;1.57;;;20.80;99.90;;;;;;5088903;28;20572;-83
2022/07/26 03:22:29;;;;;;;2.73;1.73;;;20.80;99.90;;;;;;5076564;28;20452;-83
2022/07/26 03:24:56;;;;;;;2.00;1.90;;;20.80;99.90;;;;;;5082349;28;20449;-83
2022/07/26 03:27:22;;;;;;;2.03;1.60;;;20.80;99.90;;;;;;5096327;28;21244;-83
2022/07/26 03:29:49;;;;;;;2.13;1.70;;;20.70;99.90;;;;;;5091457;28;20445;-83
2022/07/26 03:32:16;;;;;;;1.40;1.30;;;20.60;99.90;;;;;;5075949;28;20449;-83
2022/07/26 03:34:42;;;;;;;2.80;2.43;;;20.50;99.90;;;;;;5079175;28;20463;-83
2022/07/26 03:37:09;;;;;;;1.97;1.87;;;20.50;99.90;;;;;;5095924;28;20472;-82
2022/07/26 03:39:37;;;;;;;1.80;1.70;;;20.50;99.90;;;;;;5097233;28;20488;-81
2022/07/26 03:42:04;;;;;;;2.07;1.97;;;20.40;99.90;;;;;;5111068;28;20439;-80
2022/07/26 03:44:31;;;;;;;1.67;1.57;;;20.40;99.90;;;;;;5108753;28;20455;-80
2022/07/26 03:46:58;;;;;;;2.70;1.80;;;20.30;99.90;;;;;;5094356;28;20475;-79
2022/07/26 03:49:25;;;;;;;2.70;2.60;;;20.30;99.90;;;;;;5094458;28;20441;-80
2022/07/26 03:51:52;;;;;;;2.40;2.30;;;20.20;99.90;;;;;;5091900;28;20977;-82
2022/07/26 03:54:18;;;;;;;1.77;1.67;;;20.20;99.90;;;;;;5083295;28;20459;-83
2022/07/26 03:56:45;;;;;;;2.37;2.03;;;20.20;99.90;;;;;;5096646;28;20483;-83
2022/07/26 03:59:12;;;;;;;2.37;2.17;;;20.10;99.90;;;;;;5099922;28;20486;-83
2022/07/26 04:01:41;;;;;;;1.67;1.57;;;20.10;99.90;;;;;;5082033;28;20448;-83
2022/07/26 04:04:08;;;;;;;2.00;1.90;;;20.00;99.90;;;;;;5079987;28;20478;-81
2022/07/26 04:06:36;;;;;;;2.33;2.13;;;20.00;99.90;;;;;;5094879;28;20467;-83
2022/07/26 04:09:04;;;;;;;2.20;2.00;;;19.90;99.90;;;;;;5099702;28;20517;-83
2022/07/26 04:11:31;;;;;;;2.70;1.60;;;19.90;99.90;;;;;;5098245;28;20447;-83
2022/07/26 04:14:00;;;;;;;2.57;1.70;;;19.90;99.90;;;;;;5099294;28;20447;-82
2022/07/26 04:16:27;;;;;;;2.27;2.07;;;19.90;99.90;;;;;;5084837;28;20838;-83
2022/07/26 04:18:54;;;;;;;2.17;1.97;;;19.90;99.90;;;;;;5078928;28;20490;-83
2022/07/26 04:21:21;;;;;;;3.67;2.10;;;19.90;99.90;;;;;;5090877;28;20449;-83
2022/07/26 04:23:48;;;;;;;3.70;2.43;;;19.90;99.90;;;;;;5098724;28;20447;-81
2022/07/26 04:26:15;;;;;;;3.83;3.07;;;20.00;99.90;;;;;;5086775;28;20598;-83
2022/07/26 04:28:42;;;;;;;2.50;2.30;;;20.00;99.90;;;;;;5078530;28;20942;-82
2022/07/26 04:31:10;;;;;;;2.47;2.27;;;20.00;99.90;;;;;;5088090;28;20444;-83
2022/07/26 04:33:37;;;;;;;2.47;2.27;;;20.00;99.90;;;;;;5098905;28;20448;-83
2022/07/26 04:36:05;;;;;;;2.20;2.10;;;19.90;99.90;;;;;;5089961;28;20468;-83
2022/07/26 04:38:31;;;;;;;2.63;2.43;;;19.70;99.90;;;;;;5078353;28;20483;-82
2022/07/26 04:40:58;;;;;;;2.53;2.30;;;19.60;99.90;;;;;;5088076;28;20677;-82
2022/07/26 04:43:25;;;;;;;2.20;2.10;;;19.50;99.90;;;;;;5098766;28;20471;-82
2022/07/26 04:45:52;;;;;;;2.43;2.23;;;19.40;99.90;;;;;;5085998;28;20478;-82
2022/07/26 04:48:20;;;;;;;3.17;2.27;;;19.50;99.90;;;;;;5078401;28;20456;-82
2022/07/26 04:50:47;;;;;;;3.60;2.87;;;19.40;99.90;;;;;;5078260;28;20456;-82
2022/07/26 04:53:14;;;;;;;3.97;2.93;;;19.40;99.90;;;;;;5082598;28;20447;-82
2022/07/26 04:55:41;;;;;;;2.93;2.20;;;19.40;99.90;;;;;;5097855;28;20451;-81
2022/07/26 04:58:09;;;;;;;2.30;2.10;;;19.50;99.90;;;;;;5100040;28;20458;-79
2022/07/26 05:00:36;;;;;;;5.03;2.73;;;19.50;99.90;;;;;;5110764;28;20470;-79
2022/07/26 05:03:03;;;;;;;2.50;2.30;;;19.60;99.90;;;;;;5112841;28;20443;-79
2022/07/26 05:05:32;;;;;;;3.50;2.87;;;19.60;99.90;;;;;;5096975;28;20449;-78
2022/07/26 05:08:01;;;;;;;2.80;2.57;;;19.60;99.90;;;;;;5094512;28;20483;-78
2022/07/26 05:10:32;;;;;;;2.50;2.30;;;19.60;99.90;;;;;;5094300;28;20441;-78
2022/07/26 05:12:58;;;;;;;3.80;2.30;;;19.70;99.90;;;;;;5095272;28;20456;-79
2022/07/26 05:15:26;;;;;;;3.10;2.90;;;19.70;99.90;;;;;;5094451;28;20456;-78
2022/07/26 05:17:55;;;;;;;4.60;4.13;;;19.80;99.90;;;;;;5094645;28;20471;-78
2022/07/26 05:20:23;;;;;;;3.20;3.00;;;19.80;99.90;;;;;;5112331;28;20476;-78
2022/07/26 05:22:51;;;;;;;4.70;2.90;;;19.90;99.90;;;;;;5115302;28;20442;-79
2022/07/26 05:25:18;;;;;;;4.10;3.00;;;20.00;99.90;;;;;;5096679;28;20441;-79
2022/07/26 05:27:45;;;;;;;3.00;2.80;;;20.10;99.90;;;;;;5093616;28;20540;-78
2022/07/26 05:30:12;;;;;;;3.83;2.23;;;20.10;99.90;;;;;;5109187;28;20447;-79
2022/07/26 05:32:39;;;;;;;3.47;3.17;;;20.20;99.90;;;;;;5114017;28;20451;-79
2022/07/26 05:35:07;;;;;;;3.50;3.20;;;20.20;99.90;;;;;;5098759;28;20444;-80
2022/07/26 05:37:34;;;;;;;5.37;3.43;;;20.30;99.90;;;;;;5092552;28;20479;-78
2022/07/26 05:40:02;;;;;;;4.10;3.20;;;20.30;99.90;;;;;;5108661;28;20476;-78
2022/07/26 05:42:29;;;;;;;3.80;2.67;;;20.30;99.90;;;;;;5113500;28;20450;-78
2022/07/26 05:44:56;;;;;;;3.80;3.50;;;20.30;99.90;;;;;;5096684;28;20464;-79
2022/07/26 05:47:23;;;;;;;6.50;4.33;;;20.20;99.90;;;;;;5096364;28;20472;-78
2022/07/26 05:49:49;;;;;;;7.50;3.67;;;20.10;99.90;;;;;;5100281;28;20444;-78
2022/07/26 05:52:16;;;;;;;4.10;3.60;;;20.10;99.90;;;;;;5087795;28;20493;-79
2022/07/26 05:54:43;;;;;;;4.27;3.80;;;20.00;99.90;;;;;;5093452;28;20444;-78
2022/07/26 05:57:11;;;;;;;5.37;4.97;;;19.90;99.90;;;;;;5092035;28;20473;-78
2022/07/26 05:59:38;;;;;;;4.77;4.40;;;20.00;99.90;;;;;;5081582;28;20481;-78
2022/07/26 06:02:07;;;;;;;3.70;3.50;;;19.90;99.90;;;;;;5089524;28;20456;-79
2022/07/26 06:04:34;;;;;;;4.20;3.90;;;19.90;99.90;;;;;;5102004;28;20453;-79
2022/07/26 06:07:01;;;;;;;4.47;3.93;;;19.90;99.90;;;;;;5085689;28;20985;-79
2022/07/26 06:09:27;;;;;;;3.13;2.83;;;19.90;99.90;;;;;;5072994;28;20432;-78
2022/07/26 06:11:54;;;;;;;3.97;3.47;;;19.90;99.90;;;;;;5079298;28;20448;-78
2022/07/26 06:14:22;;;;;;;4.00;3.70;;;19.90;99.90;;;;;;5093109;28;20448;-78
2022/07/26 06:16:49;;;;;;;4.67;4.37;;;20.10;99.90;;;;;;5072102;28;20487;-79
2022/07/26 06:19:16;;;;;;;5.30;4.00;;;20.20;99.90;;;;;;5066816;28;21025;-79
2022/07/26 06:21:44;;;;;;;3.50;3.17;;;20.30;99.90;;;;;;5068640;28;20513;-79
2022/07/26 06:24:11;;;;;;;2.80;2.60;;;20.40;99.90;;;;;;5085247;28;20923;-78
2022/07/26 06:26:38;;;;;;;4.63;2.90;;;20.40;99.90;;;;;;5097125;28;20479;-78
2022/07/26 06:29:05;;;;;;;4.10;2.87;;;20.40;99.90;;;;;;5079463;28;20435;-79
2022/07/26 06:31:33;;;;;;;3.30;3.00;;;20.40;99.90;;;;;;5083366;28;20506;-79
2022/07/26 06:34:00;;;;;;;2.80;2.60;;;20.30;99.90;;;;;;5095326;28;20460;-79
2022/07/26 06:36:27;;;;;;;3.90;3.50;;;20.40;99.90;;;;;;5078999;28;20527;-79
2022/07/26 06:38:54;;;;;;;9.70;2.90;;;20.40;99.90;;;;;;5105268;28;20477;-80
2022/07/26 06:41:21;;;;;;;2.60;2.40;;;20.40;99.90;;;;;;5086737;28;20449;-82
2022/07/26 06:43:48;;;;;;;2.27;2.17;;;20.50;99.90;;;;;;5082064;28;20450;-85
2022/07/26 06:46:15;;;;;;;2.27;2.07;;;20.50;99.90;;;;;;5097148;28;20482;-81
2022/07/26 06:48:43;;;;;;;2.13;2.03;;;20.50;99.70;;;;;;5098038;28;20457;-81
2022/07/26 06:51:10;;;;;;;2.87;1.27;;;20.50;98.70;;;;;;5097495;28;20440;-82
2022/07/26 06:53:37;;;;;;;2.20;1.80;;;20.60;98.20;;;;;;5096709;28;20820;-84
2022/07/26 06:56:05;;;;;;;1.90;1.60;;;20.60;97.40;;;;;;5097219;28;20472;-82
2022/07/26 06:58:31;;;;;;;2.50;2.30;;;20.60;97.80;;;;;;5096773;28;20446;-82
2022/07/26 07:00:58;;;;;;;2.43;1.70;;;20.60;97.20;;;;;;5096866;28;20488;-82
2022/07/26 07:03:25;;;;;;;2.30;2.10;;;20.60;98.40;;;;;;5097758;28;20801;-82
2022/07/26 07:05:53;;;;;;;2.40;2.20;;;20.70;98.50;;;;;;5097290;28;20467;-81
2022/07/26 07:08:21;;;;;;;2.00;1.90;;;20.70;98.50;;;;;;5097419;28;20863;-81
2022/07/26 07:10:48;;;;;;;2.07;1.77;;;20.70;98.10;;;;;;5096992;28;20874;-80
2022/07/26 07:13:15;;;;;;;3.17;2.10;;;20.80;97.60;;;;;;5098023;28;20444;-84
2022/07/26 07:15:41;;;;;;;2.60;1.70;;;20.90;97.20;;;;;;5097464;28;20441;-83
2022/07/26 07:18:09;;;;;;;3.50;2.17;;;20.80;95.60;;;;;;5098300;28;20459;-83
2022/07/26 07:20:36;;;;;;;3.10;1.53;;;20.90;96.10;;;;;;5101349;28;20488;-83
2022/07/26 07:23:04;;;;;;;1.77;1.67;;;21.00;95.60;;;;;;5101929;28;20965;-82
2022/07/26 07:25:30;;;;;;;2.57;2.00;;;21.00;95.00;;;;;;5102105;28;20482;-81
2022/07/26 07:27:57;;;;;;;3.90;2.10;;;21.20;95.40;;;;;;5101360;28;20449;-84
2022/07/26 07:30:24;;;;;;;2.60;2.20;;;21.40;94.80;;;;;;5101159;28;20470;-84
2022/07/26 07:32:51;;;;;;;2.10;1.63;;;21.50;94.10;;;;;;5100864;28;20939;-84
2022/07/26 07:35:18;;;;;;;2.10;2.00;;;21.50;93.50;;;;;;5100430;28;20450;-81
2022/07/26 07:37:45;;;;;;;2.10;1.60;;;21.50;93.50;;;;;;5101297;28;20473;-82
2022/07/26 07:40:14;;;;;;;2.53;1.43;;;21.60;93.30;;;;;;5101840;28;20493;-82
2022/07/26 07:42:41;;;;;;;1.90;1.80;;;21.70;93.30;;;;;;5101791;28;20446;-84
2022/07/26 07:45:10;;;;;;;1.60;1.50;;;21.70;93.00;;;;;;5100799;28;20449;-81
2022/07/26 07:47:37;;;;;;;2.70;1.53;;;21.80;92.80;;;;;;5100909;28;20866;-82
2022/07/26 07:50:04;;;;;;;1.40;1.30;;;22.00;92.70;;;;;;5100651;28;20439;-82
2022/07/26 07:52:31;;;;;;;2.70;1.47;;;22.10;91.60;;;;;;5101598;28;20446;-81
2022/07/26 07:54:58;;;;;;;5.90;1.70;;;22.10;91.70;;;;;;5100744;28;20446;-82
2022/07/26 07:57:26;;;;;;;3.53;1.97;;;22.00;90.80;;;;;;5101347;28;20864;-82
2022/07/26 07:59:53;;;;;;;2.57;1.63;;;22.10;91.20;;;;;;5100242;28;20516;-83
2022/07/26 08:02:19;;;;;;;1.57;1.50;;;22.20;91.00;;;;;;5101282;28;20932;-82
2022/07/26 08:04:46;;;;;;;2.50;1.57;;;22.20;90.30;;;;;;5100127;28;20449;-82
2022/07/26 08:07:13;;;;;;;2.40;1.70;;;22.10;90.10;;;;;;5100450;28;20469;-83
2022/07/26 08:09:39;;;;;;;1.80;1.70;;;21.90;89.80;;;;;;5100783;28;20452;-81
2022/07/26 08:12:06;;;;;;;2.60;1.70;;;21.90;90.20;;;;;;5101143;28;20450;-83
2022/07/26 08:14:34;;;;;;;3.30;1.90;;;22.00;90.60;;;;;;5100067;28;20439;-83
2022/07/26 08:17:01;;;;;;;4.30;1.73;;;22.10;89.90;;;;;;5099364;28;21011;-82
2022/07/26 08:19:28;;;;;;;2.77;2.50;;;22.30;89.10;;;;;;5100250;28;20470;-82
2022/07/26 08:21:54;;;;;;;1.80;1.70;;;22.50;89.10;;;;;;5101021;28;20442;-82
2022/07/26 08:24:21;;;;;;;2.03;1.40;;;22.50;87.10;;;;;;5108034;28;20457;-81
2022/07/26 08:26:50;;;;;;;2.00;1.80;;;22.60;87.50;;;;;;5105832;28;20465;-82
2022/07/26 08:29:16;;;;;;;2.50;1.90;;;22.50;86.90;;;;;;5100988;28;20447;-83
2022/07/26 08:31:45;;;;;;;1.80;1.70;;;22.50;86.80;;;;;;5099722;28;20448;-85
2022/07/26 08:34:11;;;;;;;1.30;1.13;;;22.40;87.00;;;;;;5099951;28;20443;-83
2022/07/26 08:36:38;;;;;;;2.43;2.23;;;22.30;86.70;;;;;;5099569;28;20477;-82
2022/07/26 08:39:05;;;;;;;1.97;1.73;;;22.30;87.30;;;;;;5100448;28;20450;-82
2022/07/26 08:41:32;;;;;;;2.00;1.60;;;22.50;88.70;;;;;;5100272;28;20487;-83
2022/07/26 08:44:05;;;;;;;2.67;1.60;;;22.90;88.30;;;;;;5099460;28;20442;-82
2022/07/26 08:46:35;;;;;;;2.10;1.60;;;23.20;83.30;;;;;;5099154;28;20582;-83
2022/07/26 08:49:03;;;;;;;1.37;1.27;;;23.30;82.30;;;;;;5099138;28;20459;-83
2022/07/26 08:51:31;;;;;;;1.63;1.40;;;23.40;82.80;;;;;;5099696;28;20443;-83
2022/07/26 08:54:00;;;;;;;2.53;1.20;;;23.60;81.30;;;;;;5099261;28;20458;-83
2022/07/26 08:56:27;;;;;;;1.50;1.40;;;23.50;81.50;;;;;;5100595;28;20471;-82
2022/07/26 08:58:54;;;;;;;1.60;1.50;;;23.30;82.80;;;;;;5100321;28;20453;-83
2022/07/26 09:01:20;;;;;;;1.60;1.47;;;23.00;81.40;;;;;;5100071;28;20490;-83
2022/07/26 09:03:47;;;;;;;1.27;1.17;;;23.00;80.90;;;;;;5100402;28;20454;-82
2022/07/26 09:06:17;;;;;;;2.40;1.93;;;22.80;81.10;;;;;;5100250;28;20470;-83
2022/07/26 09:08:45;;;;;;;2.33;1.30;;;23.10;81.70;;;;;;5099677;28;20455;-83
2022/07/26 09:11:29;;;;;;;2.20;1.40;;;23.30;81.00;;;;;;5100117;28;20448;-83
2022/07/26 09:13:58;;;;;;;2.63;1.57;;;23.40;80.70;;;;;;5100209;28;20458;-83
2022/07/26 09:16:25;;;;;;;1.43;1.33;;;23.30;80.40;;;;;;5099775;28;20478;-83
2022/07/26 09:18:52;;;;;;;1.73;1.63;;;23.10;79.80;;;;;;5100260;28;20451;-83
2022/07/26 09:21:31;;;;;;;1.57;1.47;;;23.20;79.90;;;;;;5099925;28;20539;-83
2022/07/26 09:23:59;;;;;;;2.27;1.27;;;23.40;80.40;;;;;;5099831;28;20801;-83
2022/07/26 09:26:27;;;;;;;1.47;1.40;;;23.50;80.00;;;;;;5100422;28;20484;-83
2022/07/26 09:29:06;;;;;;;1.37;1.27;;;23.60;79.40;;;;;;5099764;28;20512;-83
2022/07/26 09:31:33;;;;;;;2.33;1.43;;;23.80;78.30;;;;;;5099885;28;20453;-83
2022/07/26 09:34:00;;;;;;;1.33;1.20;;;23.80;77.20;;;;;;5101053;28;20454;-82
2022/07/26 09:36:27;;;;;;;3.50;1.50;;;23.70;77.50;;;;;;5100136;28;20478;-83
2022/07/26 09:38:59;;;;;;;1.33;1.20;;;23.80;77.30;;;;;;5101775;28;20450;-83
2022/07/26 09:41:28;;;;;;;1.40;1.20;;;24.10;77.00;;;;;;5099443;28;20487;-82
2022/07/26 09:43:57;;;;;;;2.50;1.63;;;24.00;76.40;;;;;;5100077;28;20487;-83
2022/07/26 09:46:24;;;;;;;2.90;1.47;;;23.70;76.00;;;;;;5098760;28;20486;-83
2022/07/26 09:48:51;;;;;;;1.33;1.23;;;23.60;75.80;;;;;;5099659;28;20455;-83
2022/07/26 09:51:35;;;;;;;1.80;1.40;;;23.70;76.80;;;;;;5100454;28;20439;-83
2022/07/26 09:54:04;;;;;;;1.60;1.50;;;23.70;75.60;;;;;;5100055;28;20454;-84
2022/07/26 09:56:47;;;;;;;2.63;1.60;;;23.60;75.20;;;;;;5100176;28;20467;-83
2022/07/26 09:59:15;;;;;;;3.33;2.03;;;23.40;74.80;;;;;;5103553;28;20462;-85
2022/07/26 10:01:42;;;;;;;1.27;0.93;;;23.50;76.10;;;;;;5105104;28;20520;-85
2022/07/26 10:04:09;;;;;;;2.03;1.83;;;23.60;76.20;;;;;;5100680;28;20804;-85
2022/07/26 10:06:36;;;;;;;1.57;1.33;;;23.60;73.90;;;;;;5100704;28;20481;-83
2022/07/26 10:09:05;;;;;;;3.50;1.20;;;23.60;75.60;;;;;;5100313;28;20459;-81
2022/07/26 10:11:38;;;;;;;1.37;1.20;;;23.60;73.80;;;;;;5099554;28;20456;-82
2022/07/26 10:14:36;;;;;;;1.47;1.20;;;23.70;74.30;;;;;;5099386;28;20455;-82
2022/07/26 10:17:49;;;;;;;3.47;1.50;;;23.70;73.60;;;;;;5098685;28;20468;-85
2022/07/26 10:20:55;;;;;;;1.77;1.53;;;23.70;74.30;;;;;;5099131;28;20483;-85
2022/07/26 10:23:41;;;;;;;1.30;1.20;;;23.60;74.50;;;;;;5090980;28;20455;-83
2022/07/26 10:26:11;;;;;;;2.70;1.17;;;23.50;75.10;;;;;;5099349;28;20485;-83
2022/07/26 10:28:40;;;;;;;1.80;1.10;;;23.60;75.80;;;;;;5102228;28;20482;-85
2022/07/26 10:31:31;;;;;;;1.80;1.30;;;23.70;76.40;;;;;;5105858;28;20456;-85
2022/07/26 10:33:59;;;;;;;1.17;1.07;;;23.90;76.50;;;;;;5100713;28;20448;-82
2022/07/26 10:36:35;;;;;;;1.40;0.90;;;24.30;76.10;;;;;;5100052;28;20843;-83
2022/07/26 10:39:06;;;;;;;1.60;1.33;;;24.70;74.90;;;;;;5099637;28;20456;-83
2022/07/26 10:41:36;;;;;;;1.40;1.07;;;24.80;73.70;;;;;;5099498;28;20493;-82
2022/07/26 10:44:18;;;;;;;2.13;1.47;;;24.50;72.60;;;;;;5099472;28;20535;-85
2022/07/26 10:46:55;;;;;;;1.60;1.50;;;24.30;74.20;;;;;;5099154;28;20995;-84
2022/07/26 10:49:32;;;;;;;2.00;1.10;;;24.40;73.80;;;;;;5099781;28;20454;-84
2022/07/26 10:52:06;;;;;;;1.00;1.00;;;24.30;71.40;;;;;;5098594;28;20443;-85
2022/07/26 10:55:13;;;;;;;1.40;1.30;;;24.30;70.60;;;;;;5102234;28;20455;-85
2022/07/26 10:57:43;;;;;;;1.43;1.33;;;24.30;69.50;;;;;;5103516;28;20467;-85
2022/07/26 11:00:20;;;;;;;1.50;1.40;;;24.50;69.80;;;;;;5103086;28;20449;-84
2022/07/26 11:02:55;;;;;;;3.80;1.50;;;24.90;68.90;;;;;;5103363;28;20448;-82
2022/07/26 11:05:26;;;;;;;1.30;1.20;;;25.00;69.30;;;;;;5103843;28;20463;-83
2022/07/26 11:08:00;;;;;;;0.90;0.90;;;25.10;67.60;;;;;;5103427;28;20500;-84
2022/07/26 11:10:29;;;;;;;1.70;1.60;;;25.00;67.80;;;;;;5103248;28;20464;-84
2022/07/26 11:13:16;;;;;;;4.27;1.70;;;25.00;67.90;;;;;;5103700;28;20464;-84
2022/07/26 11:15:45;;;;;;;1.60;1.10;;;25.20;67.70;;;;;;5102743;28;20520;-82
2022/07/26 11:18:15;;;;;;;1.67;1.47;;;25.50;66.80;;;;;;5103303;28;20431;-82
2022/07/26 11:20:44;;;;;;;1.70;1.00;;;25.60;67.60;;;;;;5103876;28;20486;-84
2022/07/26 11:23:25;;;;;;;2.60;1.20;;;25.70;66.40;;;;;;5103087;28;20461;-83
2022/07/26 11:26:06;;;;;;;0.90;0.90;;;25.60;65.60;;;;;;5102573;28;21070;-82
2022/07/26 11:29:02;;;;;;;0.90;0.90;;;25.40;65.80;;;;;;5102904;28;20449;-82
2022/07/26 11:31:35;;;;;;;0.97;0.93;;;25.80;65.70;;;;;;5103795;28;20472;-82
2022/07/26 11:34:03;;;;;;;0.97;0.90;;;26.20;67.10;;;;;;5103089;28;20450;-83
2022/07/26 11:36:37;;;;;;;2.13;1.40;;;26.70;64.70;;;;;;5102805;28;20475;-83
2022/07/26 11:39:06;;;;;;;1.10;0.90;;;26.60;63.70;;;;;;5103329;28;20452;-83
2022/07/26 11:41:33;;;;;;;3.63;1.50;;;26.20;63.90;;;;;;5104378;28;20479;-83
2022/07/26 11:44:00;;;;;;;1.37;1.27;;;26.30;63.50;;;;;;5103372;28;20447;-82
2022/07/26 11:46:36;;;;;;;3.03;1.00;;;26.40;62.80;;;;;;5103243;28;20482;-83
2022/07/26 11:49:05;;;;;;;2.67;1.20;;;26.90;61.90;;;;;;5103439;28;20456;-82
2022/07/26 11:51:33;;;;;;;1.07;1.07;;;27.50;61.60;;;;;;5102836;28;20466;-85
2022/07/26 11:54:03;;;;;;;1.10;1.03;;;27.60;59.40;;;;;;5103661;28;20449;-82
2022/07/26 11:56:31;;;;;;;1.67;1.27;;;27.70;58.00;;;;;;5104162;28;20470;-82
2022/07/26 11:58:58;;;;;;;1.47;1.13;;;27.80;58.50;;;;;;5103508;28;20483;-82
2022/07/26 12:01:26;;;;;;;1.47;0.93;;;28.10;57.20;;;;;;5103057;28;20481;-82
2022/07/26 12:03:56;;;;;;;0.97;0.87;;;27.30;57.20;;;;;;5102915;28;20457;-84
2022/07/26 12:06:25;;;;;;;1.13;1.00;;;27.20;56.80;;;;;;5102163;28;20468;-82
2022/07/26 12:08:53;;;;;;;1.20;1.00;;;27.60;57.60;;;;;;5103001;28;20450;-82
2022/07/26 12:11:21;;;;;;;1.37;1.27;;;27.60;55.30;;;;;;5103538;28;20536;-82
2022/07/26 12:13:56;;;;;;;2.90;1.30;;;27.70;56.00;;;;;;5103077;28;20443;-82
2022/07/26 12:16:40;;;;;;;1.53;1.30;;;27.80;56.50;;;;;;5102091;28;20473;-83
2022/07/26 12:19:21;;;;;;;2.03;0.80;;;28.10;54.70;;;;;;5102638;28;20447;-82
2022/07/26 12:21:50;;;;;;;0.93;0.90;;;27.70;55.80;;;;;;5102134;28;20481;-82
2022/07/26 12:24:39;;;;;;;1.27;1.10;;;27.80;56.00;;;;;;5102554;28;20452;-83
2022/07/26 12:27:09;;;;;;;1.90;0.90;;;27.30;56.00;;;;;;5102377;28;20472;-82
2022/07/26 12:29:36;;;;;;;2.00;1.10;;;27.50;55.60;;;;;;5102800;28;20452;-82
2022/07/26 12:32:06;;;;;;;0.80;0.80;;;27.20;55.80;;;;;;5102843;28;20445;-82
2022/07/26 12:34:34;;;;;;;1.27;1.20;;;27.50;55.20;;;;;;5103026;28;20815;-82
2022/07/26 12:37:16;;;;;;;0.80;0.80;;;27.70;54.60;;;;;;5102974;28;20469;-82
2022/07/26 12:39:59;;;;;;;1.60;1.50;;;28.00;55.30;;;;;;5108362;28;20510;-82
2022/07/26 12:42:28;;;;;;;1.27;1.07;;;28.10;54.20;;;;;;5105084;28;20486;-82
2022/07/26 12:44:56;;;;;;;1.47;1.37;;;28.20;53.40;;;;;;5101529;28;20457;-82
2022/07/26 12:47:22;;;;;;;1.50;0.93;;;28.30;53.60;;;;;;5100845;28;20478;-82
2022/07/26 12:49:51;;;;;;;1.10;1.00;;;28.20;52.30;;;;;;5101844;28;20457;-83
2022/07/26 12:52:20;;;;;;;2.70;1.20;;;27.90;52.60;;;;;;5101269;28;20457;-85
2022/07/26 12:54:48;;;;;;;1.17;1.00;;;27.20;53.40;;;;;;5101506;28;21010;-82
2022/07/26 12:57:15;;;;;;;1.33;1.23;;;27.00;54.00;;;;;;5100808;28;20484;-82